Hlavní strana
METAR-TAF:

METAR-TAF

Letiště :

Iaşi, Rumunsko

zeměpisná šířka: 47-10N, zeměpisná délka: 027-38E, výška: 102 m

Aktuální stav počasí

Zpráva byla vytvořena před 27 minutami, v 23:00 UTC
Severoseverozápadní vítr 7 kt
Teplota 12°C
Vlhkost vzduchu 76%
Tlak 1020 hPa
Viditelnost: 7000 m
Polojasno ve výšce 1300 ft

METAR: LRIA 202300Z 34007KT 7000 SCT013 12/08 Q1020

Čas: 02:27 (23:27 UTC)

Předpověď počasí

Zpráva byla vytvořena před 3 hodinami a 27 minutami, v 20:00 UTC
Předpověď platná od 20 v 21 UTC do 21 v 06 UTC
Severozápadní vítr 6 kt
Viditelnost: 5000 m
kouřmo
Pravděpodobnost 30% :
Dočasný
od 21 v 00 UTC do 21 v 05 UTC
Viditelnost: 1500 m
Oblačno až skoro zataženo ve výšce 500 ft
kouřmo

TAF: LRIA 202000Z 2021/2106 31006KT 5000 BR NSC PROB30 TEMPO 2100/2105 1500 BR BKN005

Stav a předpovědi počasí z více než 4 000 letišť (zprávy METAR a TAF).

Červené a žluté tečky na mapě představují dostupné meteorologické stanice.

Když kurzor umístíte na tečku, zobrazí se název stanice.

Pak kliknutím zobrazíte stav a předpověď počasí.

Chcete-li změnit mapu, kliknutím na zelené tlačítko se znaménkem +mapu přiblížíte, kliknutím na zelené tlačítko se znaménkem – mapu oddálíte a kliknutím na zelené šipky přejdete na sousední mapy.


METAR-TAF: